createdAt,value
2023-12-14T00:00:46.769Z,981.91
2023-12-14T00:01:46.750Z,981.82
2023-12-14T00:02:46.714Z,981.84
2023-12-14T00:03:46.780Z,981.93
2023-12-14T00:04:46.704Z,981.94
2023-12-14T00:05:46.719Z,981.82
2023-12-14T00:06:46.668Z,981.91
2023-12-14T00:07:46.684Z,981.91
2023-12-14T00:08:46.662Z,981.99
2023-12-14T00:09:46.635Z,981.93
2023-12-14T00:10:46.642Z,981.99
2023-12-14T00:11:46.615Z,982.02
2023-12-14T00:12:46.614Z,981.96
2023-12-14T00:13:46.653Z,982.06
2023-12-14T00:14:46.591Z,981.99
2023-12-14T00:15:46.576Z,982.07
2023-12-14T00:16:46.603Z,982.08
2023-12-14T00:17:46.578Z,981.97
2023-12-14T00:18:46.584Z,982.02
2023-12-14T00:19:46.596Z,982.08
2023-12-14T00:20:46.516Z,982.08
2023-12-14T00:21:46.511Z,982.08
2023-12-14T00:22:46.541Z,982.04
2023-12-14T00:23:46.488Z,982.04
2023-12-14T00:24:46.480Z,982.06
2023-12-14T00:25:46.541Z,982.12
2023-12-14T00:26:46.469Z,982.14
2023-12-14T00:27:46.453Z,982.10
2023-12-14T00:28:46.488Z,982.15
2023-12-14T00:29:46.421Z,982.12
2023-12-14T00:30:46.490Z,982.04
2023-12-14T00:31:46.446Z,982.13
2023-12-14T00:32:46.438Z,982.19
2023-12-14T00:33:46.456Z,982.15
2023-12-14T00:34:46.413Z,982.14
2023-12-14T00:35:46.359Z,982.20
2023-12-14T00:36:46.371Z,982.19
2023-12-14T00:37:46.370Z,982.24
2023-12-14T00:38:46.325Z,982.24
2023-12-14T00:39:46.317Z,982.27
2023-12-14T00:40:46.386Z,982.27
2023-12-14T00:41:46.306Z,982.25
2023-12-14T00:42:46.280Z,982.26
2023-12-14T00:43:46.293Z,982.24
2023-12-14T00:44:46.262Z,982.33
2023-12-14T00:45:46.261Z,982.24
2023-12-14T00:46:46.273Z,982.25
2023-12-14T00:47:46.251Z,982.31
2023-12-14T00:48:46.252Z,982.32
2023-12-14T00:49:46.260Z,982.34
2023-12-14T00:50:46.222Z,982.32
2023-12-14T00:51:46.190Z,982.33
2023-12-14T00:52:46.195Z,982.31
2023-12-14T00:53:46.165Z,982.34
2023-12-14T00:54:46.166Z,982.37
2023-12-14T00:55:46.192Z,982.36
2023-12-14T00:56:46.142Z,982.40
2023-12-14T00:57:46.122Z,982.56
2023-12-14T00:58:46.163Z,982.52
2023-12-14T00:59:46.232Z,982.50
2023-12-14T01:00:46.092Z,982.49
2023-12-14T01:01:46.135Z,982.48
2023-12-14T01:02:46.098Z,982.54
2023-12-14T01:03:46.073Z,982.62
2023-12-14T01:04:46.089Z,982.72
2023-12-14T01:05:46.072Z,982.63
2023-12-14T01:06:46.030Z,982.66
2023-12-14T01:07:46.089Z,982.73
2023-12-14T01:08:46.011Z,982.74
2023-12-14T01:09:46.012Z,982.74
2023-12-14T01:10:46.038Z,982.75
2023-12-14T01:11:45.972Z,982.84
2023-12-14T01:12:45.964Z,982.78
2023-12-14T01:13:46.029Z,982.90
2023-12-14T01:14:45.965Z,982.88
2023-12-14T01:15:45.932Z,982.88
2023-12-14T01:16:45.936Z,982.90
2023-12-14T01:17:45.987Z,982.94
2023-12-14T01:18:46.003Z,982.90
2023-12-14T01:19:45.910Z,982.94
2023-12-14T01:20:45.878Z,982.96
2023-12-14T01:21:45.875Z,983.00
2023-12-14T01:22:45.977Z,982.88
2023-12-14T01:23:45.862Z,982.89
2023-12-14T01:24:45.836Z,982.93
2023-12-14T01:25:45.848Z,982.96
2023-12-14T01:26:45.813Z,982.91
2023-12-14T01:27:45.807Z,983.00
2023-12-14T01:28:45.825Z,982.96
2023-12-14T01:29:45.784Z,982.96
2023-12-14T01:30:45.804Z,982.99
2023-12-14T01:31:45.836Z,982.99
2023-12-14T01:32:45.800Z,982.98
2023-12-14T01:33:45.783Z,983.01
2023-12-14T01:34:45.754Z,983.10
2023-12-14T01:35:45.715Z,983.10
2023-12-14T01:36:45.704Z,983.14
2023-12-14T01:37:45.769Z,983.12
2023-12-14T01:38:45.682Z,983.11
2023-12-14T01:39:45.683Z,983.14
2023-12-14T01:40:45.712Z,983.16
2023-12-14T01:41:45.657Z,983.11
2023-12-14T01:42:45.651Z,983.14
2023-12-14T01:43:45.650Z,983.16
2023-12-14T01:44:45.632Z,983.19
2023-12-14T01:45:45.623Z,983.17
2023-12-14T01:46:45.628Z,983.28
2023-12-14T01:47:45.640Z,983.26
2023-12-14T01:48:45.652Z,983.26
2023-12-14T01:49:45.626Z,983.26
2023-12-14T01:50:45.569Z,983.31
2023-12-14T01:51:45.558Z,983.33
2023-12-14T01:52:45.587Z,983.33
2023-12-14T01:53:45.541Z,983.34
2023-12-14T01:54:45.535Z,983.37
2023-12-14T01:55:45.542Z,983.39
2023-12-14T01:56:45.510Z,983.38
2023-12-14T01:57:45.488Z,983.37
2023-12-14T01:58:45.485Z,983.52
2023-12-14T01:59:45.470Z,983.46
2023-12-14T02:00:45.505Z,983.45
2023-12-14T02:01:45.517Z,983.45
2023-12-14T02:02:45.436Z,983.42
2023-12-14T02:03:45.487Z,983.48
2023-12-14T02:04:45.431Z,983.43
2023-12-14T02:05:45.459Z,983.48
2023-12-14T02:06:45.397Z,983.51
2023-12-14T02:07:45.430Z,983.53
2023-12-14T02:08:45.379Z,983.57
2023-12-14T02:09:45.424Z,983.58
2023-12-14T02:10:45.414Z,983.52
2023-12-14T02:11:45.388Z,983.56
2023-12-14T02:12:45.341Z,983.56
2023-12-14T02:13:45.365Z,983.60
2023-12-14T02:14:45.320Z,983.63
2023-12-14T02:15:45.337Z,983.61
2023-12-14T02:16:45.322Z,983.71
2023-12-14T02:17:45.335Z,983.65
2023-12-14T02:18:45.408Z,983.56
2023-12-14T02:19:46.487Z,983.62
2023-12-14T02:20:46.445Z,983.74
2023-12-14T02:21:46.383Z,983.62
2023-12-14T02:22:46.391Z,983.74
2023-12-14T02:23:46.426Z,983.71
2023-12-14T02:24:46.442Z,983.77
2023-12-14T02:25:46.370Z,983.69
2023-12-14T02:27:01.855Z,983.88
2023-12-14T02:27:47.319Z,983.76
2023-12-14T02:28:46.388Z,983.79
2023-12-14T02:29:46.330Z,983.82
2023-12-14T02:30:46.311Z,983.74
2023-12-14T02:31:46.344Z,983.80
2023-12-14T02:32:46.352Z,983.80
2023-12-14T02:33:46.339Z,983.90
2023-12-14T02:34:46.346Z,983.81
2023-12-14T02:35:46.298Z,983.77
2023-12-14T02:36:46.272Z,983.80
2023-12-14T02:37:46.357Z,983.84
2023-12-14T02:38:46.348Z,983.89
2023-12-14T02:39:46.267Z,983.89
2023-12-14T02:40:46.233Z,983.89
2023-12-14T02:41:46.237Z,983.83
2023-12-14T02:42:46.235Z,983.83
2023-12-14T02:43:46.276Z,983.90
2023-12-14T02:44:46.222Z,983.83
2023-12-14T02:45:46.172Z,983.83
2023-12-14T02:46:46.227Z,983.92
2023-12-14T02:47:46.189Z,983.89
2023-12-14T02:48:46.200Z,983.89
2023-12-14T02:49:46.213Z,983.89
2023-12-14T02:50:46.141Z,983.94
2023-12-14T02:51:46.134Z,983.87
2023-12-14T02:52:46.148Z,983.90
2023-12-14T02:53:46.115Z,983.97
2023-12-14T02:54:46.106Z,983.94
2023-12-14T02:55:46.097Z,983.91
2023-12-14T02:56:46.073Z,983.97
2023-12-14T02:57:46.125Z,983.97
2023-12-14T02:58:46.132Z,983.95
2023-12-14T02:59:46.047Z,983.95
2023-12-14T03:00:46.067Z,983.95
2023-12-14T03:01:46.064Z,983.99
2023-12-14T03:02:46.031Z,984.02
2023-12-14T03:03:46.082Z,983.96
2023-12-14T03:04:46.017Z,983.92
2023-12-14T03:05:46.011Z,983.99
2023-12-14T03:06:45.948Z,983.92
2023-12-14T03:07:45.991Z,983.99
2023-12-14T03:08:45.950Z,983.92
2023-12-14T03:09:46.081Z,984.07
2023-12-14T03:10:46.032Z,983.99
2023-12-14T03:11:45.959Z,984.02
2023-12-14T03:12:45.917Z,984.04
2023-12-14T03:13:45.967Z,984.09
2023-12-14T03:14:45.924Z,984.15
2023-12-14T03:15:45.893Z,984.15
2023-12-14T03:16:45.898Z,984.12
2023-12-14T03:17:46.921Z,984.16
2023-12-14T03:18:45.898Z,984.17
2023-12-14T03:19:45.881Z,984.13
2023-12-14T03:20:45.836Z,984.28
2023-12-14T03:21:45.853Z,984.30
2023-12-14T03:22:45.849Z,984.36
2023-12-14T03:23:45.805Z,984.40
2023-12-14T03:24:45.769Z,984.35
2023-12-14T03:25:45.810Z,984.35
2023-12-14T03:26:45.788Z,984.40
2023-12-14T03:27:45.778Z,984.41
2023-12-14T03:28:45.794Z,984.35
2023-12-14T03:29:45.762Z,984.45
2023-12-14T03:30:45.815Z,984.38
2023-12-14T03:31:45.747Z,984.44
2023-12-14T03:32:45.763Z,984.44
2023-12-14T03:33:45.820Z,984.47
2023-12-14T03:34:45.707Z,984.47
2023-12-14T03:35:45.762Z,984.49
2023-12-14T03:36:45.668Z,984.55
2023-12-14T03:37:45.752Z,984.52
2023-12-14T03:38:45.659Z,984.49
2023-12-14T03:39:45.669Z,984.50
2023-12-14T03:40:45.655Z,984.57
2023-12-14T03:41:45.620Z,984.63
2023-12-14T03:42:45.636Z,984.59
2023-12-14T03:43:45.661Z,984.66
2023-12-14T03:44:45.625Z,984.61
2023-12-14T03:45:45.600Z,984.74
2023-12-14T03:46:45.630Z,984.59
2023-12-14T03:47:45.655Z,984.71
2023-12-14T03:48:45.593Z,984.67
2023-12-14T03:49:45.565Z,984.68
2023-12-14T03:50:45.571Z,984.67
2023-12-14T03:51:45.528Z,984.77
2023-12-14T03:52:45.532Z,984.70
2023-12-14T03:53:45.554Z,984.75
2023-12-14T03:54:45.573Z,984.72
2023-12-14T03:55:45.525Z,984.83
2023-12-14T03:56:45.454Z,984.74
2023-12-14T03:57:45.476Z,984.85
2023-12-14T03:58:45.492Z,984.84
2023-12-14T03:59:45.449Z,984.82
2023-12-14T04:00:45.442Z,984.88
2023-12-14T04:01:45.434Z,984.85
2023-12-14T04:02:45.443Z,984.79
2023-12-14T04:03:45.425Z,984.85
2023-12-14T04:04:45.440Z,984.84
2023-12-14T04:05:45.454Z,984.91
2023-12-14T04:06:45.377Z,984.87
2023-12-14T04:07:45.482Z,984.88
2023-12-14T04:08:45.369Z,984.84
2023-12-14T04:09:45.375Z,984.95
2023-12-14T04:10:45.366Z,984.84
2023-12-14T04:11:45.327Z,984.83
2023-12-14T04:12:45.341Z,984.88
2023-12-14T04:13:45.383Z,985.00
2023-12-14T04:14:45.311Z,984.86
2023-12-14T04:15:45.323Z,984.86
2023-12-14T04:16:45.334Z,984.87
2023-12-14T04:17:45.430Z,984.95
2023-12-14T04:18:45.391Z,985.00
2023-12-14T04:19:45.326Z,985.02
2023-12-14T04:20:45.284Z,985.01
2023-12-14T04:21:45.246Z,985.06
2023-12-14T04:22:45.407Z,985.15
2023-12-14T04:23:45.222Z,985.12
2023-12-14T04:24:45.222Z,985.08
2023-12-14T04:25:45.200Z,985.07
2023-12-14T04:26:45.198Z,985.17
2023-12-14T04:27:45.175Z,985.10
2023-12-14T04:28:45.322Z,985.19
2023-12-14T04:29:45.178Z,985.19
2023-12-14T04:30:45.176Z,985.21
2023-12-14T04:31:45.158Z,985.25
2023-12-14T04:32:45.195Z,985.30
2023-12-14T04:33:45.143Z,985.30
2023-12-14T04:34:45.176Z,985.33
2023-12-14T04:35:45.105Z,985.35
2023-12-14T04:36:45.107Z,985.35
2023-12-14T04:37:45.135Z,985.32
2023-12-14T04:38:45.132Z,985.37
2023-12-14T04:39:45.035Z,985.43
2023-12-14T04:40:45.106Z,985.40
2023-12-14T04:41:45.067Z,985.43
2023-12-14T04:42:45.018Z,985.44
2023-12-14T04:43:45.067Z,985.39
2023-12-14T04:44:45.009Z,985.43
2023-12-14T04:45:45.047Z,985.35
2023-12-14T04:46:45.069Z,985.47
2023-12-14T04:47:45.019Z,985.44
2023-12-14T04:48:45.068Z,985.45
2023-12-14T04:49:45.044Z,985.50
2023-12-14T04:50:44.962Z,985.49
2023-12-14T04:51:44.957Z,985.51
2023-12-14T04:52:44.980Z,985.53
2023-12-14T04:53:44.897Z,985.52
2023-12-14T04:54:44.910Z,985.56
2023-12-14T04:55:46.189Z,985.55
2023-12-14T04:56:44.937Z,985.68
2023-12-14T04:57:44.911Z,985.63
2023-12-14T04:58:44.883Z,985.68
2023-12-14T04:59:44.866Z,985.67
2023-12-14T05:00:44.871Z,985.66
2023-12-14T05:01:44.878Z,985.67
2023-12-14T05:02:44.834Z,985.69
2023-12-14T05:03:44.831Z,985.66
2023-12-14T05:04:44.823Z,985.80
2023-12-14T05:05:44.849Z,985.76
2023-12-14T05:06:44.803Z,985.80
2023-12-14T05:07:44.811Z,985.70
2023-12-14T05:08:44.780Z,985.73
2023-12-14T05:09:44.818Z,985.75
2023-12-14T05:10:44.797Z,985.75
2023-12-14T05:11:44.733Z,985.81
2023-12-14T05:12:44.708Z,985.80
2023-12-14T05:13:44.723Z,985.92
2023-12-14T05:14:44.923Z,985.83
2023-12-14T05:15:44.714Z,985.87
2023-12-14T05:16:44.722Z,985.90
2023-12-14T05:17:44.704Z,985.81
2023-12-14T05:18:44.713Z,985.88
2023-12-14T05:19:44.698Z,985.89
2023-12-14T05:20:44.646Z,985.85
2023-12-14T05:21:44.641Z,985.90
2023-12-14T05:22:44.623Z,985.91
2023-12-14T05:23:44.605Z,986.03
2023-12-14T05:24:44.610Z,986.03
2023-12-14T05:25:44.608Z,986.01
2023-12-14T05:26:44.585Z,986.00
2023-12-14T05:27:44.580Z,986.02
2023-12-14T05:28:45.547Z,986.00
2023-12-14T05:29:44.601Z,986.09
2023-12-14T05:30:44.590Z,986.06
2023-12-14T05:31:44.585Z,986.11
2023-12-14T05:32:44.638Z,986.06
2023-12-14T05:33:44.670Z,986.17
2023-12-14T05:34:44.562Z,986.13
2023-12-14T05:35:44.491Z,986.10
2023-12-14T05:36:44.495Z,986.07
2023-12-14T05:37:44.555Z,986.07
2023-12-14T05:38:44.483Z,986.10
2023-12-14T05:39:44.474Z,986.10
2023-12-14T05:40:44.453Z,986.07
2023-12-14T05:41:44.465Z,986.19
2023-12-14T05:42:44.457Z,986.14
2023-12-14T05:43:44.461Z,986.19
2023-12-14T05:44:44.432Z,986.19
2023-12-14T05:45:44.453Z,986.15
2023-12-14T05:46:44.438Z,986.11
2023-12-14T05:47:44.489Z,986.26
2023-12-14T05:48:44.392Z,986.25
2023-12-14T05:49:44.447Z,986.26
2023-12-14T05:50:44.343Z,986.31
2023-12-14T05:51:44.348Z,986.28
2023-12-14T05:52:44.398Z,986.35
2023-12-14T05:53:44.358Z,986.40
2023-12-14T05:54:44.313Z,986.46
2023-12-14T05:55:44.318Z,986.52
2023-12-14T05:56:44.312Z,986.49
2023-12-14T05:57:44.291Z,986.52
2023-12-14T05:58:44.290Z,986.48
2023-12-14T05:59:44.246Z,986.51
2023-12-14T06:00:44.273Z,986.49
2023-12-14T06:01:44.450Z,986.53
2023-12-14T06:02:44.401Z,986.53
2023-12-14T06:03:44.291Z,986.57
2023-12-14T06:04:45.102Z,986.65
2023-12-14T06:05:44.286Z,986.66
2023-12-14T06:06:44.207Z,986.64
2023-12-14T06:07:44.232Z,986.73
2023-12-14T06:08:44.154Z,986.69
2023-12-14T06:09:44.150Z,986.68
2023-12-14T06:10:44.232Z,986.69
2023-12-14T06:11:44.206Z,986.74
2023-12-14T06:12:44.127Z,986.76
2023-12-14T06:13:44.189Z,986.79
2023-12-14T06:14:44.091Z,986.79
2023-12-14T06:15:44.133Z,986.81
2023-12-14T06:16:44.140Z,986.85
2023-12-14T06:17:44.328Z,986.83
2023-12-14T06:18:44.180Z,986.82
2023-12-14T06:19:44.096Z,986.86
2023-12-14T06:20:44.079Z,986.88
2023-12-14T06:21:44.042Z,986.92
2023-12-14T06:22:44.051Z,986.91
2023-12-14T06:23:44.045Z,986.93
2023-12-14T06:24:44.025Z,986.99
2023-12-14T06:25:44.029Z,986.97
2023-12-14T06:26:43.992Z,986.97
2023-12-14T06:27:43.964Z,987.03
2023-12-14T06:28:44.025Z,987.04
2023-12-14T06:29:43.997Z,987.07
2023-12-14T06:30:44.044Z,987.07
2023-12-14T06:31:43.972Z,987.13
2023-12-14T06:32:43.970Z,987.12
2023-12-14T06:33:44.053Z,987.12
2023-12-14T06:34:43.947Z,987.23
2023-12-14T06:35:43.896Z,987.17
2023-12-14T06:36:43.870Z,987.13
2023-12-14T06:37:43.889Z,987.23
2023-12-14T06:38:43.844Z,987.20
2023-12-14T06:39:43.856Z,987.22
2023-12-14T06:40:43.853Z,987.25
2023-12-14T06:41:43.823Z,987.27
2023-12-14T06:42:44.840Z,987.39
2023-12-14T06:43:44.497Z,987.35
2023-12-14T06:44:43.803Z,987.33
2023-12-14T06:45:43.799Z,987.38
2023-12-14T06:46:43.792Z,987.42
2023-12-14T06:47:45.293Z,987.44
2023-12-14T06:48:44.574Z,987.36
2023-12-14T06:49:43.881Z,987.42
2023-12-14T06:50:45.941Z,987.46
2023-12-14T06:51:43.715Z,987.54
2023-12-14T06:52:43.913Z,987.48
2023-12-14T06:53:43.712Z,987.51
2023-12-14T06:54:43.691Z,987.54
2023-12-14T06:55:43.769Z,987.55
2023-12-14T06:56:43.662Z,987.65
2023-12-14T06:57:43.657Z,987.56
2023-12-14T06:58:43.746Z,987.65
2023-12-14T06:59:43.658Z,987.68
2023-12-14T07:00:43.649Z,987.68
2023-12-14T07:01:43.644Z,987.68
2023-12-14T07:02:43.606Z,987.70
2023-12-14T07:03:44.845Z,987.72
2023-12-14T07:06:35.441Z,987.80
2023-12-14T07:06:43.586Z,987.69
2023-12-14T07:07:43.626Z,987.77
2023-12-14T07:08:43.576Z,987.86
2023-12-14T07:09:43.583Z,987.83
2023-12-14T07:10:46.373Z,987.90
2023-12-14T07:11:44.553Z,987.87
2023-12-14T07:12:43.583Z,987.85
2023-12-14T07:13:43.501Z,987.83
2023-12-14T07:14:43.496Z,987.93
2023-12-14T07:15:43.474Z,987.96
2023-12-14T07:16:43.517Z,987.92
2023-12-14T07:17:43.602Z,988.06
2023-12-14T07:18:43.561Z,987.99
2023-12-14T07:19:43.497Z,988.13
2023-12-14T07:20:43.443Z,988.00
2023-12-14T07:21:43.438Z,988.09
2023-12-14T07:22:43.457Z,988.11
2023-12-14T07:23:43.434Z,988.16
2023-12-14T07:24:52.176Z,988.08
2023-12-14T07:25:45.426Z,988.09
2023-12-14T07:26:43.398Z,988.20
2023-12-14T07:27:43.362Z,988.15
2023-12-14T07:28:43.373Z,988.27
2023-12-14T07:29:43.333Z,988.17
2023-12-14T07:30:43.904Z,988.25
2023-12-14T07:31:43.365Z,988.26
2023-12-14T07:32:43.322Z,988.30
2023-12-14T07:33:43.360Z,988.29
2023-12-14T07:34:43.284Z,988.35
2023-12-14T07:35:43.284Z,988.31
2023-12-14T07:36:43.334Z,988.38
2023-12-14T07:37:43.285Z,988.45
2023-12-14T07:38:43.277Z,988.36
2023-12-14T07:39:43.236Z,988.42
2023-12-14T07:40:43.278Z,988.44
2023-12-14T07:41:43.216Z,988.41
2023-12-14T07:42:43.241Z,988.42
2023-12-14T07:43:43.302Z,988.39
2023-12-14T07:44:43.197Z,988.41
2023-12-14T07:45:43.192Z,988.43
2023-12-14T07:46:43.350Z,988.44
2023-12-14T07:47:43.225Z,988.42
2023-12-14T07:48:43.177Z,988.44
2023-12-14T07:49:43.222Z,988.48
2023-12-14T07:50:43.132Z,988.44
2023-12-14T07:51:43.115Z,988.47
2023-12-14T07:52:43.106Z,988.55
2023-12-14T07:53:43.125Z,988.54
2023-12-14T07:54:43.132Z,988.52
2023-12-14T07:55:43.088Z,988.56
2023-12-14T07:56:43.071Z,988.64
2023-12-14T07:57:43.107Z,988.72
2023-12-14T07:58:43.195Z,988.62
2023-12-14T07:59:43.110Z,988.67
2023-12-14T08:00:43.062Z,988.68
2023-12-14T08:01:43.032Z,988.71
2023-12-14T08:02:43.013Z,988.75
2023-12-14T08:03:43.052Z,988.75
2023-12-14T08:04:43.023Z,988.84
2023-12-14T08:05:43.022Z,988.75
2023-12-14T08:06:42.982Z,988.80
2023-12-14T08:07:43.061Z,988.82
2023-12-14T08:08:42.957Z,988.79
2023-12-14T08:09:42.914Z,988.82
2023-12-14T08:10:42.989Z,988.91
2023-12-14T08:11:42.945Z,988.87
2023-12-14T08:12:42.926Z,988.88
2023-12-14T08:13:42.938Z,988.92
2023-12-14T08:14:42.868Z,988.91
2023-12-14T08:15:42.854Z,989.01
2023-12-14T08:16:42.898Z,989.00
2023-12-14T08:17:42.911Z,989.11
2023-12-14T08:18:42.853Z,989.11
2023-12-14T08:19:42.829Z,989.04
2023-12-14T08:20:42.796Z,989.04
2023-12-14T08:21:42.804Z,989.10
2023-12-14T08:22:42.830Z,989.15
2023-12-14T08:23:42.781Z,989.14
2023-12-14T08:24:42.788Z,989.27
2023-12-14T08:25:42.823Z,989.29
2023-12-14T08:26:42.740Z,989.25
2023-12-14T08:27:42.753Z,989.32
2023-12-14T08:28:42.758Z,989.36
2023-12-14T08:29:42.671Z,989.35
2023-12-14T08:30:42.704Z,989.47
2023-12-14T08:31:42.777Z,989.46
2023-12-14T08:32:42.878Z,989.38
2023-12-14T08:33:43.212Z,989.38
2023-12-14T08:34:42.702Z,989.45
2023-12-14T08:35:42.676Z,989.56
2023-12-14T08:36:42.642Z,989.48
2023-12-14T08:37:42.691Z,989.59
2023-12-14T08:38:42.628Z,989.56
2023-12-14T08:39:42.590Z,989.51
2023-12-14T08:40:42.629Z,989.58
2023-12-14T08:41:42.652Z,989.50
2023-12-14T08:42:42.541Z,989.63
2023-12-14T08:43:42.615Z,989.67
2023-12-14T08:44:42.642Z,989.65
2023-12-14T08:45:47.293Z,989.66
2023-12-14T08:46:42.540Z,989.69
2023-12-14T08:47:42.645Z,989.74
2023-12-14T08:48:42.555Z,989.79
2023-12-14T08:49:42.512Z,989.69
2023-12-14T08:50:42.570Z,989.71
2023-12-14T08:51:45.525Z,989.80
2023-12-14T08:52:56.373Z,989.76
2023-12-14T08:53:54.265Z,989.87
2023-12-14T08:54:50.263Z,989.81
2023-12-14T08:55:59.876Z,989.83
2023-12-14T08:56:44.474Z,989.93
2023-12-14T08:57:42.453Z,989.94
2023-12-14T08:58:42.568Z,989.86
2023-12-14T08:59:44.482Z,989.88
2023-12-14T09:00:43.413Z,990.02
2023-12-14T09:01:42.471Z,989.87
2023-12-14T09:02:42.585Z,989.99
2023-12-14T09:03:42.369Z,989.96
2023-12-14T09:04:42.403Z,990.05
2023-12-14T09:05:42.394Z,990.06
2023-12-14T09:06:42.347Z,990.02
2023-12-14T09:07:42.386Z,990.06
2023-12-14T09:08:42.295Z,990.11
2023-12-14T09:09:42.326Z,990.10
2023-12-14T09:10:42.301Z,990.17
2023-12-14T09:11:42.284Z,990.14
2023-12-14T09:12:42.293Z,990.19
2023-12-14T09:13:42.298Z,990.37
2023-12-14T09:14:42.328Z,990.18
2023-12-14T09:15:42.218Z,990.23
2023-12-14T09:16:42.239Z,990.28
2023-12-14T09:17:42.616Z,990.37
2023-12-14T09:18:42.224Z,990.38
2023-12-14T09:19:42.190Z,990.46
2023-12-14T09:20:42.163Z,990.49
2023-12-14T09:21:46.610Z,990.42
2023-12-14T09:22:42.216Z,990.44
2023-12-14T09:23:42.164Z,990.54
2023-12-14T09:24:42.155Z,990.57
2023-12-14T09:25:42.227Z,990.45
2023-12-14T09:26:42.084Z,990.48
2023-12-14T09:27:42.102Z,990.57
2023-12-14T09:28:42.302Z,990.61
2023-12-14T09:29:42.069Z,990.71
2023-12-14T09:30:42.145Z,990.63
2023-12-14T09:31:42.092Z,990.67
2023-12-14T09:32:42.132Z,990.75
2023-12-14T09:33:42.221Z,990.75
2023-12-14T09:34:42.036Z,990.88
2023-12-14T09:35:42.004Z,990.91
2023-12-14T09:36:42.004Z,990.89
2023-12-14T09:37:42.010Z,990.91
2023-12-14T09:38:42.005Z,990.91
2023-12-14T09:39:42.028Z,990.98
2023-12-14T09:40:41.984Z,990.98
2023-12-14T09:41:42.062Z,990.96
2023-12-14T09:42:42.087Z,990.93
2023-12-14T09:43:42.970Z,990.94
2023-12-14T09:44:41.992Z,990.94
2023-12-14T09:45:42.151Z,990.96
2023-12-14T09:46:41.984Z,990.95
2023-12-14T09:47:41.931Z,991.03
2023-12-14T09:48:41.935Z,991.05
2023-12-14T09:49:41.981Z,991.07
2023-12-14T09:50:41.951Z,991.07
2023-12-14T09:51:41.872Z,991.08
2023-12-14T09:52:41.854Z,991.08
2023-12-14T09:53:41.875Z,991.19
2023-12-14T09:54:42.022Z,991.18
2023-12-14T09:55:42.856Z,991.15
2023-12-14T09:56:44.902Z,991.18
2023-12-14T09:57:43.396Z,991.19
2023-12-14T09:58:45.176Z,991.21
2023-12-14T09:59:41.751Z,991.14
2023-12-14T10:00:41.778Z,991.24
2023-12-14T10:01:43.273Z,991.19
2023-12-14T10:02:41.734Z,991.23
2023-12-14T10:03:41.774Z,991.31
2023-12-14T10:04:41.811Z,991.34
2023-12-14T10:05:41.882Z,991.35
2023-12-14T10:06:41.760Z,991.32
2023-12-14T10:07:41.723Z,991.33
2023-12-14T10:08:41.696Z,991.35
2023-12-14T10:09:41.666Z,991.37
2023-12-14T10:10:43.323Z,991.35
2023-12-14T10:11:48.527Z,991.42
2023-12-14T10:12:45.792Z,991.39
2023-12-14T10:17:30.954Z,991.51
2023-12-14T10:26:24.128Z,991.63
2023-12-14T10:27:24.036Z,991.57
2023-12-14T10:28:24.038Z,991.60
2023-12-14T10:58:52.759Z,992.08
2023-12-14T10:59:52.721Z,992.07
2023-12-14T11:00:56.236Z,992.09
2023-12-14T11:01:53.681Z,992.15
2023-12-14T11:02:52.703Z,992.16
2023-12-14T11:03:52.682Z,992.12
2023-12-14T11:04:52.707Z,992.04
2023-12-14T11:05:55.515Z,992.12
2023-12-14T11:06:54.197Z,992.09
2023-12-14T11:07:52.661Z,992.20
2023-12-14T11:19:02.603Z,992.37
2023-12-14T11:28:42.914Z,992.48
2023-12-14T11:29:43.081Z,992.49
2023-12-14T11:30:52.165Z,992.49
2023-12-14T11:31:43.897Z,992.45
2023-12-14T11:32:42.879Z,992.54
2023-12-14T11:33:44.527Z,992.40
2023-12-14T11:34:42.904Z,992.47
2023-12-14T11:35:42.865Z,992.50
2023-12-14T11:36:42.866Z,992.48
2023-12-14T11:37:42.811Z,992.54
2023-12-14T11:38:42.797Z,992.58
2023-12-14T11:39:43.362Z,992.52
2023-12-14T11:40:51.621Z,992.56
2023-12-14T11:41:45.440Z,992.63
2023-12-14T11:44:09.215Z,992.61
2023-12-14T11:45:09.297Z,992.59
2023-12-14T11:46:09.188Z,992.64
2023-12-14T11:47:09.230Z,992.56
2023-12-14T11:48:09.261Z,992.61
2023-12-14T11:49:09.238Z,992.66
2023-12-14T11:50:09.186Z,992.63
2023-12-14T11:51:09.188Z,992.77
2023-12-14T11:52:09.116Z,992.76
2023-12-14T11:53:09.294Z,992.66
2023-12-14T11:54:09.113Z,992.78
2023-12-14T11:55:09.105Z,992.78
2023-12-14T11:56:09.157Z,992.75
2023-12-14T11:57:09.076Z,992.82
2023-12-14T11:58:09.056Z,992.79
2023-12-14T11:59:09.083Z,992.80
2023-12-14T12:00:09.045Z,992.77
2023-12-14T12:01:09.050Z,992.71
2023-12-14T12:02:09.042Z,992.84
2023-12-14T12:03:09.045Z,992.80
2023-12-14T12:04:09.025Z,992.74
2023-12-14T12:05:09.081Z,992.79
2023-12-14T12:06:09.139Z,992.87
2023-12-14T12:07:09.002Z,992.80
2023-12-14T12:08:08.986Z,992.84
2023-12-14T12:09:08.949Z,992.84
2023-12-14T12:10:08.955Z,992.86
2023-12-14T12:11:08.943Z,992.85
2023-12-14T12:12:08.990Z,992.90
2023-12-14T12:13:08.910Z,992.93
2023-12-14T12:14:08.927Z,992.97
2023-12-14T12:15:08.900Z,993.03
2023-12-14T12:16:08.873Z,992.95
2023-12-14T12:17:08.967Z,992.98
2023-12-14T12:18:08.930Z,993.01
2023-12-14T12:19:08.859Z,993.01
2023-12-14T12:20:08.877Z,992.97
2023-12-14T12:21:08.822Z,992.97
2023-12-14T12:22:08.837Z,993.04
2023-12-14T12:23:08.919Z,993.04
2023-12-14T12:24:18.555Z,993.08
2023-12-14T12:25:15.483Z,993.02
2023-12-14T12:26:09.825Z,992.99
2023-12-14T12:27:08.767Z,993.01
2023-12-14T12:28:08.781Z,993.03
2023-12-14T12:29:08.782Z,993.09
2023-12-14T12:30:08.760Z,993.02
2023-12-14T12:31:08.838Z,993.06
2023-12-14T12:32:08.751Z,993.04
2023-12-14T12:33:08.766Z,993.08
2023-12-14T12:34:08.738Z,993.11
2023-12-14T12:35:08.728Z,993.10
2023-12-14T12:36:08.756Z,993.14
2023-12-14T12:37:08.666Z,993.18
2023-12-14T12:38:08.722Z,993.17
2023-12-14T12:39:08.667Z,993.14
2023-12-14T12:40:08.617Z,993.16
2023-12-14T12:41:08.629Z,993.20
2023-12-14T12:42:08.603Z,993.18
2023-12-14T12:43:08.609Z,993.18
2023-12-14T12:44:08.611Z,993.19
2023-12-14T12:45:08.571Z,993.27
2023-12-14T12:46:08.609Z,993.22
2023-12-14T12:47:11.406Z,993.24
2023-12-14T12:48:08.967Z,993.28
2023-12-14T12:49:08.604Z,993.29
2023-12-14T12:50:08.592Z,993.32
2023-12-14T12:51:08.509Z,993.35
2023-12-14T12:52:08.509Z,993.33
2023-12-14T12:53:08.516Z,993.31
2023-12-14T12:54:12.931Z,993.41
2023-12-14T12:55:09.468Z,993.41
2023-12-14T12:56:08.494Z,993.36
2023-12-14T12:57:08.457Z,993.36
2023-12-14T12:58:08.435Z,993.32
2023-12-14T12:59:09.954Z,993.36
2023-12-14T13:00:08.411Z,993.37
2023-12-14T13:01:08.430Z,993.38
2023-12-14T13:02:08.420Z,993.37
2023-12-14T13:03:08.412Z,993.40
2023-12-14T13:04:08.371Z,993.46
2023-12-14T13:05:08.465Z,993.36
2023-12-14T13:06:08.430Z,993.45
2023-12-14T13:07:08.351Z,993.46
2023-12-14T13:08:08.379Z,993.47
2023-12-14T13:09:08.324Z,993.49
2023-12-14T13:10:16.029Z,993.52
2023-12-14T13:11:09.333Z,993.46
2023-12-14T13:12:08.301Z,993.54
2023-12-14T13:13:08.298Z,993.54
2023-12-14T13:14:08.285Z,993.58
2023-12-14T13:15:08.257Z,993.57
2023-12-14T13:16:08.298Z,993.53
2023-12-14T13:17:08.320Z,993.54
2023-12-14T13:18:08.325Z,993.62
2023-12-14T13:19:08.263Z,993.63
2023-12-14T13:20:08.313Z,993.73
2023-12-14T13:21:08.213Z,993.66
2023-12-14T13:22:08.242Z,993.65
2023-12-14T13:23:08.267Z,993.65
2023-12-14T13:24:08.249Z,993.67
2023-12-14T13:25:08.222Z,993.62
2023-12-14T13:26:08.287Z,993.63
2023-12-14T13:27:08.148Z,993.65
2023-12-14T13:28:08.130Z,993.68
2023-12-14T13:29:08.222Z,993.73
2023-12-14T13:30:08.118Z,993.76
2023-12-14T13:31:08.163Z,993.73